createdAt,value
2019-02-26T00:01:57.978Z,99.90
2019-02-26T00:06:56.256Z,99.90
2019-02-26T00:12:02.440Z,99.90
2019-02-26T00:17:10.316Z,99.90
2019-02-26T00:22:13.785Z,99.90
2019-02-26T00:27:20.118Z,99.90
2019-02-26T00:32:31.992Z,99.90
2019-02-26T00:37:28.515Z,99.90
2019-02-26T00:42:28.656Z,99.90
2019-02-26T00:47:29.858Z,99.90
2019-02-26T00:52:25.638Z,99.90
2019-02-26T00:57:21.222Z,99.90
2019-02-26T01:02:27.750Z,99.90
2019-02-26T01:07:21.345Z,99.90
2019-02-26T01:12:20.194Z,99.90
2019-02-26T01:17:16.464Z,99.90
2019-02-26T01:22:12.154Z,99.90
2019-02-26T01:27:10.343Z,99.90
2019-02-26T01:32:11.004Z,99.90
2019-02-26T01:37:09.874Z,99.90
2019-02-26T01:42:04.531Z,99.90
2019-02-26T01:47:00.856Z,99.90
2019-02-26T01:51:56.763Z,99.90
2019-02-26T01:56:53.418Z,99.90
2019-02-26T02:01:49.639Z,99.90
2019-02-26T02:07:01.476Z,99.90
2019-02-26T04:04:16.681Z,99.90
2019-02-26T04:09:13.690Z,99.90
2019-02-26T04:14:22.698Z,99.90
2019-02-26T04:19:16.809Z,99.90
2019-02-26T04:24:13.607Z,99.90
2019-02-26T04:29:16.441Z,99.90
2019-02-26T04:34:15.672Z,99.90
2019-02-26T04:39:36.809Z,99.90
2019-02-26T04:44:39.994Z,99.90
2019-02-26T04:49:38.970Z,99.90
2019-02-26T04:54:39.752Z,99.90
2019-02-26T04:59:35.086Z,99.90
2019-02-26T05:04:30.708Z,99.90
2019-02-26T05:09:27.435Z,99.90
2019-02-26T05:14:23.965Z,99.90
2019-02-26T05:19:21.758Z,99.90
2019-02-26T05:24:18.919Z,99.90
2019-02-26T05:29:19.720Z,99.90
2019-02-26T05:34:17.735Z,99.90
2019-02-26T05:39:18.801Z,99.90
2019-02-26T05:44:14.404Z,99.90
2019-02-26T05:49:13.236Z,99.90
2019-02-26T05:54:08.045Z,99.90
2019-02-26T05:59:06.786Z,99.90
2019-02-26T06:04:04.075Z,99.90
2019-02-26T06:09:09.534Z,99.90
2019-02-26T06:14:19.737Z,99.90
2019-02-26T06:19:15.878Z,99.90
2019-02-26T06:24:11.836Z,99.90
2019-02-26T06:29:07.745Z,99.90
2019-02-26T06:34:05.621Z,99.90
2019-02-26T06:39:01.361Z,99.90
2019-02-26T06:44:07.543Z,99.90
2019-02-26T06:49:02.642Z,99.90
2019-02-26T06:53:58.837Z,99.90
2019-02-26T06:58:54.684Z,99.90
2019-02-26T07:03:50.202Z,99.90
2019-02-26T07:08:46.663Z,99.90
2019-02-26T07:13:46.405Z,99.90
2019-02-26T07:18:43.455Z,99.90
2019-02-26T07:23:40.008Z,96.50
2019-02-26T07:28:35.408Z,91.90
2019-02-26T07:33:32.288Z,79.80
2019-02-26T07:38:29.636Z,67.70
2019-02-26T07:43:24.293Z,63.20
2019-02-26T07:48:21.266Z,69.50
2019-02-26T07:53:22.706Z,59.90
2019-02-26T07:58:17.959Z,49.50
2019-02-26T08:03:13.033Z,48.80
2019-02-26T08:08:12.521Z,47.90
2019-02-26T08:13:10.306Z,53.50
2019-02-26T08:18:09.621Z,56.50
2019-02-26T08:23:03.500Z,56.40
2019-02-26T08:28:01.310Z,55.20
2019-02-26T08:33:02.053Z,58.00
2019-02-26T08:37:57.113Z,56.00
2019-02-26T08:42:51.247Z,56.50
2019-02-26T08:53:03.607Z,55.70
2019-02-26T08:57:58.977Z,56.60
2019-02-26T09:02:56.421Z,58.50
2019-02-26T09:07:54.391Z,56.00
2019-02-26T09:12:51.696Z,53.70
2019-02-26T09:17:50.909Z,46.60
2019-02-26T09:22:56.361Z,43.70
2019-02-26T09:27:50.021Z,43.70
2019-02-26T09:32:47.548Z,48.30
2019-02-26T09:37:44.846Z,49.10
2019-02-26T09:42:40.501Z,48.80
2019-02-26T09:47:41.672Z,49.20
2019-02-26T09:52:36.571Z,44.40
2019-02-26T09:57:35.658Z,39.90
2019-02-26T10:02:34.743Z,35.20
2019-02-26T10:07:33.138Z,33.90
2019-02-26T10:12:32.046Z,31.90
2019-02-26T10:17:26.249Z,30.90
2019-02-26T10:22:26.034Z,28.60
2019-02-26T10:27:20.904Z,27.30
2019-02-26T10:32:36.414Z,25.70
2019-02-26T10:37:39.113Z,26.40
2019-02-26T10:42:39.821Z,25.30
2019-02-26T10:47:32.215Z,25.70
2019-02-26T10:52:28.676Z,25.90
2019-02-26T10:57:31.058Z,26.00
2019-02-26T11:02:27.930Z,26.60
2019-02-26T11:07:22.669Z,25.60
2019-02-26T11:12:33.960Z,27.40
2019-02-26T11:17:31.590Z,32.10
2019-02-26T11:22:28.206Z,32.60
2019-02-26T11:27:24.451Z,29.00
2019-02-26T11:32:20.125Z,26.90
2019-02-26T11:37:20.142Z,26.30
2019-02-26T11:42:18.413Z,25.60
2019-02-26T11:47:13.714Z,25.80
2019-02-26T11:52:09.465Z,27.60
2019-02-26T11:57:04.588Z,30.00
2019-02-26T12:02:01.432Z,34.20
2019-02-26T12:06:58.508Z,38.40
2019-02-26T12:12:03.316Z,42.50
2019-02-26T12:16:57.675Z,46.40
2019-02-26T12:21:54.401Z,49.70
2019-02-26T12:26:52.499Z,51.70
2019-02-26T12:31:52.934Z,53.10
2019-02-26T12:36:51.236Z,58.00
2019-02-26T12:41:48.114Z,60.40
2019-02-26T12:46:44.870Z,63.10
2019-02-26T12:51:41.162Z,62.00
2019-02-26T12:56:41.393Z,65.70
2019-02-26T13:01:39.515Z,64.10
2019-02-26T13:06:51.793Z,65.60
2019-02-26T13:12:00.517Z,63.80
2019-02-26T13:16:46.322Z,61.60
2019-02-26T13:21:42.874Z,61.90
2019-02-26T13:26:55.669Z,61.80
2019-02-26T13:31:56.429Z,62.20
2019-02-26T13:36:53.697Z,65.10
2019-02-26T13:41:46.568Z,65.10
2019-02-26T13:46:41.491Z,64.70
2019-02-26T13:51:37.048Z,63.10
2019-02-26T13:56:32.018Z,61.60
2019-02-26T14:01:36.798Z,60.10
2019-02-26T14:06:31.702Z,60.70
2019-02-26T14:11:26.524Z,61.80
2019-02-26T14:16:23.896Z,62.90
2019-02-26T14:21:19.113Z,61.60
2019-02-26T14:26:13.816Z,58.20
2019-02-26T14:31:10.112Z,58.60
2019-02-26T14:36:08.373Z,59.80
2019-02-26T14:41:12.245Z,62.20
2019-02-26T14:46:07.429Z,64.30
2019-02-26T14:51:01.800Z,61.70
2019-02-26T14:55:56.428Z,65.60
2019-02-26T15:01:04.114Z,65.40
2019-02-26T15:05:58.691Z,66.30
2019-02-26T15:10:57.960Z,67.40
2019-02-26T15:15:53.773Z,72.50
2019-02-26T15:20:57.925Z,76.10
2019-02-26T15:25:57.571Z,77.10
2019-02-26T15:30:53.706Z,80.60
2019-02-26T15:35:49.838Z,81.80
2019-02-26T15:40:44.949Z,81.90
2019-02-26T15:45:51.827Z,80.60
2019-02-26T15:50:50.799Z,82.50
2019-02-26T15:55:45.390Z,82.80
2019-02-26T16:00:49.098Z,84.30
2019-02-26T16:05:54.990Z,85.60
2019-02-26T16:10:59.677Z,87.20
2019-02-26T16:16:08.519Z,86.90
2019-02-26T16:21:05.462Z,87.80
2019-02-26T16:25:59.853Z,89.10
2019-02-26T16:31:04.644Z,90.20
2019-02-26T16:36:02.774Z,90.50
2019-02-26T16:40:58.764Z,90.60
2019-02-26T16:45:54.575Z,91.10
2019-02-26T16:50:48.743Z,91.80
2019-02-26T16:55:48.467Z,92.10
2019-02-26T17:00:51.919Z,93.10
2019-02-26T17:05:57.304Z,93.10
2019-02-26T17:10:55.821Z,93.60
2019-02-26T17:15:53.054Z,93.90
2019-02-26T17:20:48.134Z,94.10
2019-02-26T17:25:43.395Z,94.40
2019-02-26T17:30:43.260Z,94.70
2019-02-26T17:35:37.748Z,95.30
2019-02-26T17:40:43.464Z,95.50
2019-02-26T17:45:39.465Z,95.50
2019-02-26T17:50:38.262Z,96.30
2019-02-26T17:55:33.301Z,97.70
2019-02-26T18:00:32.057Z,97.70
2019-02-26T18:05:27.186Z,98.50
2019-02-26T18:10:26.753Z,99.50
2019-02-26T18:15:23.138Z,99.90
2019-02-26T18:20:21.540Z,99.30
2019-02-26T18:25:23.683Z,99.70
2019-02-26T18:30:28.812Z,99.90
2019-02-26T18:35:22.960Z,99.90
2019-02-26T18:40:27.949Z,99.90
2019-02-26T18:45:31.303Z,99.90
2019-02-26T18:50:29.278Z,99.90
2019-02-26T18:55:32.532Z,99.90
2019-02-26T19:00:33.782Z,99.90
2019-02-26T19:05:33.609Z,99.90
2019-02-26T19:10:33.074Z,99.90
2019-02-26T19:15:38.636Z,99.90
2019-02-26T19:20:38.435Z,99.90
2019-02-26T19:25:32.957Z,99.90
2019-02-26T19:30:30.342Z,99.90
2019-02-26T19:35:27.455Z,99.90
2019-02-26T19:40:38.739Z,99.90
2019-02-26T19:45:45.056Z,99.90
2019-02-26T19:50:45.434Z,99.90
2019-02-26T19:55:48.750Z,99.90
2019-02-26T20:00:46.409Z,99.90
2019-02-26T20:05:46.291Z,99.90
2019-02-26T20:10:54.823Z,99.90
2019-02-26T20:15:45.993Z,99.90
2019-02-26T20:20:48.378Z,99.90
2019-02-26T20:25:57.696Z,99.90
2019-02-26T20:30:51.927Z,99.90
2019-02-26T20:35:47.160Z,99.90
2019-02-26T20:40:42.097Z,99.90
2019-02-26T20:45:37.950Z,99.90
2019-02-26T20:50:37.495Z,99.90
2019-02-26T20:55:33.809Z,99.90
2019-02-26T21:00:42.513Z,99.90
2019-02-26T21:05:38.057Z,99.90
2019-02-26T21:10:40.403Z,99.90
2019-02-26T21:15:40.686Z,99.90
2019-02-26T21:20:35.573Z,99.90
2019-02-26T21:25:30.660Z,99.90
2019-02-26T21:30:33.096Z,99.90
2019-02-26T21:35:31.749Z,99.90
2019-02-26T21:40:28.354Z,99.90
2019-02-26T21:45:30.651Z,99.90
2019-02-26T21:50:25.337Z,99.90
2019-02-26T21:55:20.888Z,99.90
2019-02-26T22:00:25.611Z,99.90
2019-02-26T22:05:23.962Z,99.90
2019-02-26T22:10:24.078Z,99.90
2019-02-26T22:15:19.187Z,99.90
2019-02-26T22:20:35.398Z,99.90
2019-02-26T22:25:23.232Z,99.90
2019-02-26T22:30:24.491Z,99.90
2019-02-26T22:35:26.404Z,99.90
2019-02-26T22:40:34.093Z,99.90
2019-02-26T22:45:32.978Z,99.90
2019-02-26T22:50:34.706Z,99.90
2019-02-26T22:55:28.959Z,99.90
2019-02-26T23:01:06.782Z,99.90
2019-02-26T23:06:11.235Z,99.90
2019-02-26T23:11:17.381Z,99.90
2019-02-26T23:16:13.066Z,99.90
2019-02-26T23:21:08.677Z,99.90
2019-02-26T23:26:08.609Z,99.90
2019-02-26T23:31:07.557Z,99.90
2019-02-26T23:35:58.390Z,99.90
2019-02-26T23:40:53.801Z,99.90
2019-02-26T23:45:48.352Z,99.90
2019-02-26T23:50:47.917Z,99.90
2019-02-26T23:55:47.237Z,99.90
